createdAt,value
2023-02-15T00:00:27.591Z,18.70
2023-02-15T00:02:53.953Z,18.10
2023-02-15T00:05:20.315Z,18.70
2023-02-15T00:07:46.612Z,14.27
2023-02-15T00:10:13.017Z,15.50
2023-02-15T00:12:39.332Z,18.98
2023-02-15T00:15:05.743Z,15.98
2023-02-15T00:17:32.120Z,16.77
2023-02-15T00:19:58.427Z,13.48
2023-02-15T00:22:24.839Z,14.48
2023-02-15T00:24:51.188Z,14.43
2023-02-15T00:27:17.488Z,12.95
2023-02-15T00:29:43.807Z,15.25
2023-02-15T00:32:10.115Z,13.50
2023-02-15T00:34:36.534Z,14.65
2023-02-15T00:37:02.919Z,14.10
2023-02-15T00:39:29.327Z,14.43
2023-02-15T00:41:55.659Z,14.82
2023-02-15T00:44:22.151Z,16.73
2023-02-15T00:46:48.519Z,15.43
2023-02-15T00:49:14.829Z,17.40
2023-02-15T00:51:41.225Z,14.80
2023-02-15T00:54:07.821Z,15.40
2023-02-15T00:56:34.259Z,15.38
2023-02-15T00:59:00.692Z,17.58
2023-02-15T01:01:27.247Z,17.42
2023-02-15T01:03:53.603Z,16.25
2023-02-15T01:06:19.958Z,15.40
2023-02-15T01:08:47.069Z,15.23
2023-02-15T01:11:16.217Z,17.80
2023-02-15T01:13:42.821Z,13.85
2023-02-15T01:16:09.725Z,19.50
2023-02-15T01:18:36.474Z,15.05
2023-02-15T01:21:14.162Z,13.90
2023-02-15T01:23:41.689Z,12.80
2023-02-15T01:26:08.042Z,16.10
2023-02-15T01:28:34.365Z,11.27
2023-02-15T01:31:09.048Z,15.13
2023-02-15T01:33:36.560Z,15.10
2023-02-15T01:36:04.073Z,11.95
2023-02-15T01:38:30.571Z,16.38
2023-02-15T01:40:57.168Z,12.80
2023-02-15T01:43:40.692Z,14.82
2023-02-15T01:46:09.349Z,12.25
2023-02-15T01:48:42.082Z,13.57
2023-02-15T01:51:09.170Z,12.65
2023-02-15T01:53:44.547Z,13.32
2023-02-15T01:56:18.302Z,12.80
2023-02-15T01:58:45.558Z,9.23
2023-02-15T02:01:12.119Z,10.88
2023-02-15T02:03:53.105Z,14.48
2023-02-15T02:06:21.469Z,15.38
2023-02-15T02:08:49.102Z,12.05
2023-02-15T02:11:16.020Z,10.10
2023-02-15T02:13:44.371Z,13.10
2023-02-15T02:16:39.698Z,12.65
2023-02-15T02:19:33.928Z,12.55
2023-02-15T02:22:12.916Z,15.52
2023-02-15T02:24:51.554Z,11.10
2023-02-15T02:27:43.728Z,13.77
2023-02-15T02:30:34.782Z,12.88
2023-02-15T02:33:27.257Z,9.90
2023-02-15T02:36:08.594Z,12.95
2023-02-15T02:38:50.457Z,11.63
2023-02-15T02:41:41.715Z,14.32
2023-02-15T02:44:20.089Z,12.73
2023-02-15T02:46:54.727Z,15.68
2023-02-15T02:49:39.402Z,13.15
2023-02-15T02:52:27.606Z,13.45
2023-02-15T02:54:56.595Z,13.65
2023-02-15T02:57:25.016Z,15.20
2023-02-15T02:59:53.641Z,12.27
2023-02-15T03:02:27.676Z,13.80
2023-02-15T03:05:02.255Z,13.70
2023-02-15T03:07:30.274Z,10.77
2023-02-15T03:09:59.688Z,9.65
2023-02-15T03:12:35.382Z,12.73
2023-02-15T03:15:11.625Z,13.20
2023-02-15T03:17:43.141Z,12.18
2023-02-15T03:20:22.530Z,10.90
2023-02-15T03:22:54.157Z,9.40
2023-02-15T03:25:32.336Z,12.00
2023-02-15T03:28:10.297Z,11.80
2023-02-15T03:30:40.304Z,9.48
2023-02-15T03:33:08.608Z,14.13
2023-02-15T03:35:44.843Z,10.52
2023-02-15T03:38:18.664Z,12.43
2023-02-15T03:40:47.814Z,10.18
2023-02-15T03:43:29.106Z,12.05
2023-02-15T03:46:01.217Z,10.30
2023-02-15T03:48:32.441Z,13.18
2023-02-15T03:51:04.527Z,13.63
2023-02-15T03:53:31.240Z,13.60
2023-02-15T03:55:57.640Z,11.30
2023-02-15T03:58:23.980Z,12.50
2023-02-15T04:00:58.242Z,10.75
2023-02-15T04:03:35.052Z,10.38
2023-02-15T04:06:03.331Z,14.02
2023-02-15T04:08:29.897Z,11.52
2023-02-15T04:10:56.358Z,12.00
2023-02-15T04:13:25.650Z,10.07
2023-02-15T04:15:54.569Z,11.07
2023-02-15T04:18:20.965Z,16.92
2023-02-15T04:20:47.462Z,12.68
2023-02-15T04:23:13.935Z,11.63
2023-02-15T04:25:40.241Z,12.00
2023-02-15T04:28:06.721Z,13.77
2023-02-15T04:30:33.023Z,12.88
2023-02-15T04:32:59.368Z,11.10
2023-02-15T04:35:25.705Z,13.50
2023-02-15T04:37:51.989Z,16.17
2023-02-15T04:40:19.636Z,10.75
2023-02-15T04:42:48.511Z,12.90
2023-02-15T04:45:14.823Z,13.68
2023-02-15T04:47:42.041Z,14.18
2023-02-15T04:50:08.653Z,11.93
2023-02-15T04:52:34.971Z,14.95
2023-02-15T04:55:01.361Z,16.33
2023-02-15T04:57:27.671Z,16.00
2023-02-15T04:59:54.104Z,15.30
2023-02-15T05:02:20.493Z,15.82
2023-02-15T05:04:46.801Z,13.75
2023-02-15T05:07:13.217Z,15.55
2023-02-15T05:09:39.529Z,16.38
2023-02-15T05:12:06.160Z,17.40
2023-02-15T05:14:32.450Z,15.25
2023-02-15T05:16:58.756Z,14.82
2023-02-15T05:19:25.157Z,13.70
2023-02-15T05:21:51.459Z,15.25
2023-02-15T05:24:17.858Z,13.45
2023-02-15T05:26:44.172Z,13.25
2023-02-15T05:29:11.310Z,15.98
2023-02-15T05:31:38.168Z,14.57
2023-02-15T05:34:04.578Z,15.75
2023-02-15T05:36:30.875Z,14.43
2023-02-15T05:38:57.213Z,18.40
2023-02-15T05:41:23.497Z,12.23
2023-02-15T05:43:49.793Z,16.35
2023-02-15T05:46:16.211Z,15.20
2023-02-15T05:48:42.644Z,16.80
2023-02-15T05:51:13.326Z,16.65
2023-02-15T05:53:40.690Z,18.25
2023-02-15T05:56:09.395Z,15.57
2023-02-15T05:58:38.893Z,17.35
2023-02-15T06:01:14.149Z,13.35
2023-02-15T06:03:41.199Z,17.73
2023-02-15T06:06:08.240Z,16.35
2023-02-15T06:08:36.104Z,18.73
2023-02-15T06:11:02.518Z,17.30
2023-02-15T06:13:29.126Z,15.82
2023-02-15T06:15:55.439Z,16.00
2023-02-15T06:18:21.911Z,17.75
2023-02-15T06:20:49.047Z,14.13
2023-02-15T06:23:15.910Z,15.20
2023-02-15T06:25:42.417Z,15.05
2023-02-15T06:28:08.836Z,14.30
2023-02-15T06:30:35.131Z,15.02
2023-02-15T06:33:01.459Z,12.38
2023-02-15T06:35:28.233Z,16.50
2023-02-15T06:37:54.544Z,14.52
2023-02-15T06:40:21.001Z,17.63
2023-02-15T06:42:47.320Z,16.48
2023-02-15T06:45:14.231Z,17.63
2023-02-15T06:47:40.546Z,15.48
2023-02-15T06:50:08.032Z,16.92
2023-02-15T06:52:34.797Z,12.65
2023-02-15T06:55:01.235Z,16.02
2023-02-15T06:57:27.547Z,30.83
2023-02-15T06:59:53.847Z,38.00
2023-02-15T07:02:20.236Z,21.70
2023-02-15T07:04:46.671Z,17.35
2023-02-15T07:07:14.056Z,21.23
2023-02-15T07:09:40.601Z,17.33
2023-02-15T07:12:07.523Z,20.40
2023-02-15T07:14:33.845Z,17.50
2023-02-15T07:17:00.139Z,18.02
2023-02-15T07:19:26.472Z,13.98
2023-02-15T07:21:52.921Z,14.70
2023-02-15T07:24:19.304Z,14.57
2023-02-15T07:26:45.743Z,16.38
2023-02-15T07:29:12.044Z,16.65
2023-02-15T07:31:38.327Z,16.80
2023-02-15T07:34:06.908Z,17.10
2023-02-15T07:36:33.204Z,16.65
2023-02-15T07:38:59.508Z,12.68
2023-02-15T07:41:25.810Z,12.23
2023-02-15T07:43:52.106Z,22.10
2023-02-15T07:46:18.987Z,26.83
2023-02-15T07:48:45.942Z,29.08
2023-02-15T07:51:13.523Z,17.23
2023-02-15T07:53:40.246Z,15.90
2023-02-15T07:56:10.291Z,18.60
2023-02-15T07:58:36.907Z,15.75
2023-02-15T08:01:03.214Z,29.13
2023-02-15T08:03:29.525Z,16.27
2023-02-15T08:06:00.432Z,13.68
2023-02-15T08:08:27.910Z,13.23
2023-02-15T08:10:54.236Z,14.02
2023-02-15T08:13:20.933Z,10.95
2023-02-15T08:15:51.299Z,13.85
2023-02-15T08:18:17.895Z,12.07
2023-02-15T08:20:50.288Z,16.65
2023-02-15T08:23:16.576Z,15.43
2023-02-15T08:25:42.885Z,16.08
2023-02-15T08:28:09.618Z,16.25
2023-02-15T08:30:36.456Z,16.50
2023-02-15T08:33:03.433Z,15.05
2023-02-15T08:35:29.846Z,18.23
2023-02-15T08:37:56.147Z,17.05
2023-02-15T08:40:22.464Z,14.60
2023-02-15T08:42:48.748Z,16.20
2023-02-15T08:45:15.146Z,20.58
2023-02-15T08:47:41.457Z,15.05
2023-02-15T08:50:08.017Z,15.07
2023-02-15T08:52:34.312Z,18.88
2023-02-15T08:55:00.621Z,20.10
2023-02-15T08:57:28.066Z,32.72
2023-02-15T08:59:54.352Z,16.05
2023-02-15T09:02:20.785Z,14.57
2023-02-15T09:04:47.156Z,19.10
2023-02-15T09:07:13.456Z,15.80
2023-02-15T09:09:39.753Z,14.93
2023-02-15T09:12:06.423Z,15.52
2023-02-15T09:14:33.672Z,20.60
2023-02-15T09:17:00.235Z,17.20
2023-02-15T09:19:26.612Z,17.13
2023-02-15T09:21:53.116Z,19.63
2023-02-15T09:24:19.640Z,15.05
2023-02-15T09:26:48.289Z,14.98
2023-02-15T09:29:15.411Z,18.48
2023-02-15T09:31:50.121Z,10.85
2023-02-15T09:34:19.111Z,15.70
2023-02-15T09:36:46.181Z,14.35
2023-02-15T09:39:14.003Z,16.38
2023-02-15T09:44:30.958Z,12.23
2023-02-15T09:47:28.283Z,14.70
2023-02-15T09:50:00.350Z,14.75
2023-02-15T09:52:54.639Z,14.57
2023-02-15T09:55:47.153Z,16.05
2023-02-15T09:58:43.628Z,18.92
2023-02-15T10:01:32.007Z,14.30
2023-02-15T10:04:03.414Z,14.98
2023-02-15T10:06:44.659Z,13.85
2023-02-15T10:09:27.000Z,13.00
2023-02-15T10:12:06.705Z,16.52
2023-02-15T10:14:48.417Z,16.98
2023-02-15T10:17:17.633Z,14.00
2023-02-15T10:20:00.856Z,17.27
2023-02-15T10:23:07.326Z,28.92
2023-02-15T10:25:58.007Z,30.77
2023-02-15T10:28:31.121Z,14.30
2023-02-15T10:31:16.440Z,15.90
2023-02-15T10:33:44.495Z,14.70
2023-02-15T10:36:24.051Z,17.17
2023-02-15T10:38:59.961Z,15.70
2023-02-15T10:41:43.330Z,15.18
2023-02-15T10:44:21.694Z,15.18
2023-02-15T10:47:24.697Z,12.50
2023-02-15T10:50:26.512Z,18.35
2023-02-15T10:53:09.188Z,17.48
2023-02-15T10:55:38.638Z,17.67
2023-02-15T10:58:29.706Z,15.23
2023-02-15T11:01:01.274Z,15.52
2023-02-15T11:03:49.608Z,17.15
2023-02-15T11:06:19.940Z,15.63
2023-02-15T11:08:54.421Z,18.05
2023-02-15T11:11:26.444Z,16.15
2023-02-15T11:13:59.641Z,22.00
2023-02-15T11:16:33.598Z,16.55
2023-02-15T11:19:08.901Z,17.02
2023-02-15T11:21:40.122Z,15.75
2023-02-15T11:24:14.632Z,17.38
2023-02-15T11:26:49.165Z,14.88
2023-02-15T11:29:26.654Z,17.50
2023-02-15T11:32:00.861Z,19.92
2023-02-15T11:34:35.646Z,16.42
2023-02-15T11:37:08.366Z,21.33
2023-02-15T11:39:38.217Z,19.55
2023-02-15T11:42:14.922Z,17.08
2023-02-15T11:44:57.281Z,19.48
2023-02-15T11:47:23.753Z,23.45
2023-02-15T11:49:50.043Z,20.77
2023-02-15T11:52:18.744Z,19.33
2023-02-15T11:54:48.801Z,21.08
2023-02-15T11:57:24.126Z,18.60
2023-02-15T11:59:57.678Z,20.27
2023-02-15T12:02:24.082Z,21.75
2023-02-15T12:05:16.577Z,19.30
2023-02-15T12:07:47.959Z,21.67
2023-02-15T12:10:21.456Z,21.83
2023-02-15T12:12:47.847Z,20.23
2023-02-15T12:15:14.887Z,19.38
2023-02-15T12:17:49.895Z,20.40
2023-02-15T12:20:16.286Z,21.30
2023-02-15T12:22:55.605Z,24.15
2023-02-15T12:25:25.702Z,22.10
2023-02-15T12:27:52.240Z,25.30
2023-02-15T12:30:30.484Z,18.63
2023-02-15T12:33:05.799Z,23.38
2023-02-15T12:35:35.103Z,22.10
2023-02-15T12:38:05.604Z,21.23
2023-02-15T12:40:34.189Z,21.23
2023-02-15T12:43:00.775Z,19.77
2023-02-15T12:45:32.929Z,18.88
2023-02-15T12:48:14.164Z,22.48
2023-02-15T12:50:42.056Z,22.27
2023-02-15T12:53:30.696Z,21.02
2023-02-15T12:55:59.391Z,21.08
2023-02-15T12:58:30.657Z,18.45
2023-02-15T13:01:19.921Z,22.48
2023-02-15T13:04:05.265Z,23.73
2023-02-15T13:06:34.730Z,19.73
2023-02-15T13:09:38.095Z,19.90
2023-02-15T13:12:25.729Z,25.30
2023-02-15T13:14:54.641Z,25.15
2023-02-15T13:17:26.821Z,20.85
2023-02-15T13:19:54.346Z,24.48
2023-02-15T13:22:25.272Z,22.50
2023-02-15T13:24:56.649Z,23.27
2023-02-15T13:27:28.164Z,21.35
2023-02-15T13:29:58.209Z,21.83
2023-02-15T13:32:38.247Z,24.42
2023-02-15T13:35:06.665Z,23.38
2023-02-15T13:37:57.683Z,20.70
2023-02-15T13:40:31.899Z,22.63
2023-02-15T13:43:20.254Z,26.33
2023-02-15T13:46:14.489Z,24.77
2023-02-15T13:49:01.236Z,26.67
2023-02-15T13:51:47.077Z,22.95
2023-02-15T13:54:54.597Z,26.40
2023-02-15T13:57:58.110Z,26.23
2023-02-15T14:00:42.728Z,24.17
2023-02-15T14:03:33.546Z,23.13
2023-02-15T14:06:24.492Z,21.30
2023-02-15T14:08:59.003Z,23.52
2023-02-15T14:11:48.161Z,26.48
2023-02-15T14:14:30.802Z,27.45
2023-02-15T14:17:31.375Z,21.40
2023-02-15T14:20:05.418Z,25.42
2023-02-15T14:22:45.473Z,26.30
2023-02-15T14:25:24.582Z,26.58
2023-02-15T14:28:06.250Z,23.67
2023-02-15T14:30:39.651Z,18.10
2023-02-15T14:33:22.597Z,23.10
2023-02-15T14:35:49.387Z,20.60
2023-02-15T14:38:37.376Z,23.73
2023-02-15T14:41:19.058Z,21.33
2023-02-15T14:43:57.534Z,23.45
2023-02-15T14:46:23.860Z,20.65
2023-02-15T14:48:56.246Z,22.60
2023-02-15T14:51:40.832Z,21.77
2023-02-15T14:54:31.259Z,20.25
2023-02-15T14:57:03.778Z,25.38
2023-02-15T14:59:36.084Z,23.77
2023-02-15T15:02:08.476Z,23.23
2023-02-15T15:04:53.926Z,24.17
2023-02-15T15:07:24.315Z,25.75
2023-02-15T15:10:15.274Z,25.67
2023-02-15T15:12:41.693Z,26.58
2023-02-15T15:15:13.497Z,22.25
2023-02-15T15:17:39.781Z,25.15
2023-02-15T15:20:13.481Z,22.98
2023-02-15T15:25:10.132Z,20.33
2023-02-15T15:27:43.951Z,27.25
2023-02-15T15:30:30.293Z,27.63
2023-02-15T15:32:56.673Z,26.25
2023-02-15T15:35:53.463Z,26.77
2023-02-15T15:38:46.490Z,24.55
2023-02-15T15:41:42.624Z,23.20
2023-02-15T15:44:48.596Z,21.95
2023-02-15T15:47:29.591Z,24.60
2023-02-15T15:49:58.434Z,23.88
2023-02-15T15:52:25.450Z,22.45
2023-02-15T15:54:58.083Z,21.30
2023-02-15T15:57:35.874Z,22.38
2023-02-15T16:00:03.594Z,29.58
2023-02-15T16:05:07.692Z,22.35
2023-02-15T16:07:34.051Z,22.50
2023-02-15T16:10:20.245Z,24.10
2023-02-15T16:12:48.621Z,27.27
2023-02-15T16:15:18.121Z,26.42
2023-02-15T16:17:47.730Z,24.48
2023-02-15T16:20:24.315Z,25.88
2023-02-15T16:23:16.023Z,23.75
2023-02-15T16:25:51.138Z,25.38
2023-02-15T16:28:17.850Z,26.65
2023-02-15T16:30:44.181Z,29.70
2023-02-15T16:33:17.899Z,25.40
2023-02-15T16:35:56.192Z,28.90
2023-02-15T16:38:45.499Z,25.95
2023-02-15T16:41:18.350Z,24.25
2023-02-15T16:43:48.549Z,25.35
2023-02-15T16:46:21.935Z,24.98
2023-02-15T16:48:52.317Z,26.05
2023-02-15T16:51:27.563Z,30.90
2023-02-15T16:53:56.575Z,29.42
2023-02-15T16:56:28.425Z,29.33
2023-02-15T16:58:56.349Z,36.30
2023-02-15T17:01:26.510Z,27.15
2023-02-15T17:04:31.323Z,25.85
2023-02-15T17:07:00.913Z,32.03
2023-02-15T17:09:27.339Z,26.45
2023-02-15T17:11:53.731Z,28.83
2023-02-15T17:14:22.591Z,25.90
2023-02-15T17:16:53.353Z,29.20
2023-02-15T17:19:30.220Z,28.55
2023-02-15T17:22:03.042Z,32.10
2023-02-15T17:24:33.823Z,27.60
2023-02-15T17:27:04.625Z,34.10
2023-02-15T17:29:37.859Z,32.60
2023-02-15T17:32:06.116Z,36.63
2023-02-15T17:34:41.780Z,34.08
2023-02-15T17:37:42.161Z,39.05
2023-02-15T17:40:22.586Z,31.30
2023-02-15T17:42:48.919Z,42.58
2023-02-15T17:45:16.120Z,40.65
2023-02-15T17:47:42.836Z,37.33
2023-02-15T17:50:19.840Z,33.85
2023-02-15T17:52:46.310Z,37.35
2023-02-15T17:55:15.840Z,36.78
2023-02-15T17:57:42.254Z,42.22
2023-02-15T18:00:13.655Z,37.50
2023-02-15T18:02:40.530Z,37.22
2023-02-15T18:05:13.944Z,32.25
2023-02-15T18:07:40.701Z,35.33
2023-02-15T18:10:19.082Z,33.60
2023-02-15T18:12:45.391Z,30.55
2023-02-15T18:15:13.028Z,35.85
2023-02-15T18:22:46.815Z,24.30
2023-02-15T18:25:18.997Z,28.58
2023-02-15T18:27:46.236Z,36.80
2023-02-15T18:30:20.660Z,38.55
2023-02-15T18:32:48.561Z,33.83
2023-02-15T18:37:42.623Z,29.00
2023-02-15T18:40:17.582Z,36.55
2023-02-15T18:42:44.297Z,30.38
2023-02-15T18:45:25.185Z,34.00
2023-02-15T18:47:51.923Z,36.63
2023-02-15T18:50:20.055Z,31.83
2023-02-15T18:52:48.059Z,37.00
2023-02-15T18:55:32.412Z,34.10
2023-02-15T18:57:58.867Z,36.05
2023-02-15T19:00:30.398Z,38.10
2023-02-15T19:02:57.057Z,40.20
2023-02-15T19:05:24.429Z,38.53
2023-02-15T19:07:51.499Z,37.28
2023-02-15T19:10:30.193Z,37.42
2023-02-15T19:12:56.583Z,36.72
2023-02-15T19:15:25.980Z,43.95
2023-02-15T19:17:53.873Z,38.22
2023-02-15T19:22:53.175Z,29.77
2023-02-15T19:25:23.585Z,35.80
2023-02-15T19:27:50.617Z,33.72
2023-02-15T19:30:24.430Z,37.95
2023-02-15T19:32:50.860Z,36.17
2023-02-15T19:35:20.013Z,35.55
2023-02-15T19:37:50.028Z,38.22
2023-02-15T19:40:20.230Z,43.97
2023-02-15T19:42:46.995Z,36.92
2023-02-15T19:45:14.953Z,41.47
2023-02-15T19:47:41.396Z,36.55
2023-02-15T19:50:13.347Z,37.33
2023-02-15T19:52:40.263Z,38.08
2023-02-15T19:55:06.737Z,31.70
2023-02-15T19:57:33.014Z,29.50
2023-02-15T20:00:04.838Z,31.27
2023-02-15T20:02:35.842Z,34.00
2023-02-15T20:05:02.226Z,34.95
2023-02-15T20:07:28.783Z,29.58
2023-02-15T20:09:55.489Z,34.05
2023-02-15T20:12:24.692Z,31.17
2023-02-15T20:14:51.920Z,38.47
2023-02-15T20:17:18.350Z,32.25
2023-02-15T20:19:44.726Z,33.72
2023-02-15T20:22:26.830Z,36.95
2023-02-15T20:24:53.894Z,36.70
2023-02-15T20:27:20.317Z,28.35
2023-02-15T20:29:46.738Z,32.85
2023-02-15T20:32:13.188Z,32.47
2023-02-15T20:34:39.613Z,29.00
2023-02-15T20:37:06.044Z,28.13
2023-02-15T20:39:32.368Z,32.50
2023-02-15T20:41:58.693Z,33.17
2023-02-15T20:44:31.459Z,30.50
2023-02-15T20:46:59.023Z,31.98
2023-02-15T20:49:27.354Z,33.05
2023-02-15T20:51:54.997Z,32.40
2023-02-15T20:54:23.944Z,32.90
2023-02-15T20:56:50.425Z,35.17
2023-02-15T20:59:23.664Z,35.35
2023-02-15T21:01:52.162Z,31.30
2023-02-15T21:04:22.842Z,31.95
2023-02-15T21:06:49.411Z,33.53
2023-02-15T21:09:16.988Z,33.53
2023-02-15T21:11:44.778Z,33.45
2023-02-15T21:14:17.599Z,34.00
2023-02-15T21:16:45.274Z,30.63
2023-02-15T21:19:13.724Z,30.40
2023-02-15T21:21:40.332Z,32.83
2023-02-15T21:24:09.556Z,31.48
2023-02-15T21:26:43.857Z,33.75
2023-02-15T21:29:21.932Z,35.10
2023-02-15T21:31:48.707Z,34.00
2023-02-15T21:34:15.705Z,29.85
2023-02-15T21:36:43.314Z,28.38
2023-02-15T21:39:23.943Z,28.92
2023-02-15T21:41:52.875Z,29.67
2023-02-15T21:44:21.807Z,27.05
2023-02-15T21:46:48.252Z,27.63
2023-02-15T21:49:14.583Z,30.85
2023-02-15T21:51:40.999Z,31.75
2023-02-15T21:54:12.413Z,28.73
2023-02-15T21:56:38.855Z,27.25
2023-02-15T21:59:13.402Z,29.00
2023-02-15T22:01:42.553Z,25.88
2023-02-15T22:04:14.663Z,24.98
2023-02-15T22:06:41.643Z,31.52
2023-02-15T22:09:17.595Z,29.55
2023-02-15T22:11:44.403Z,31.10
2023-02-15T22:14:35.487Z,26.20
2023-02-15T22:17:03.624Z,30.98
2023-02-15T22:19:30.143Z,30.27
2023-02-15T22:21:56.507Z,30.50
2023-02-15T22:24:22.813Z,23.88
2023-02-15T22:26:49.108Z,27.75
2023-02-15T22:29:18.399Z,25.77
2023-02-15T22:31:44.994Z,27.10
2023-02-15T22:34:37.765Z,34.17
2023-02-15T22:37:04.078Z,45.28
2023-02-15T22:39:30.354Z,37.38
2023-02-15T22:41:56.991Z,24.13
2023-02-15T22:44:32.134Z,27.27
2023-02-15T22:47:02.184Z,33.05
2023-02-15T22:49:28.523Z,26.92
2023-02-15T22:51:54.821Z,32.78
2023-02-15T22:54:21.113Z,27.50
2023-02-15T22:56:50.968Z,26.33
2023-02-15T22:59:24.190Z,27.33
2023-02-15T23:01:50.659Z,28.20
2023-02-15T23:04:19.126Z,27.38
2023-02-15T23:06:46.067Z,29.88
2023-02-15T23:09:12.813Z,28.10
2023-02-15T23:11:39.692Z,28.38
2023-02-15T23:14:06.476Z,26.77
2023-02-15T23:16:32.831Z,36.47
2023-02-15T23:18:59.281Z,33.78
2023-02-15T23:21:29.659Z,29.17
2023-02-15T23:24:12.803Z,31.08
2023-02-15T23:26:39.135Z,34.25
2023-02-15T23:29:11.906Z,35.78
2023-02-15T23:31:42.120Z,36.95
2023-02-15T23:34:29.203Z,28.00
2023-02-15T23:36:56.759Z,31.00
2023-02-15T23:39:25.863Z,35.65
2023-02-15T23:41:52.452Z,27.17
2023-02-15T23:44:19.377Z,29.02
2023-02-15T23:46:47.281Z,41.03
2023-02-15T23:51:47.184Z,25.67
2023-02-15T23:54:15.869Z,25.67
2023-02-15T23:56:45.097Z,28.40
2023-02-15T23:59:17.943Z,26.70
